WetterOnline ( https://www.wetteronline.de )

Wetter aktuell Berlin

Aktuelles Wetter: Berlin-Tempelhof (49m)

6-stündlich | Neueste Meldungen
Ortszeit Temperatur Wetter
Sa, 01.10. 2:00 8.4° C wolkenlos
Fr, 30.09. 20:00 13.2° C wolkenlos
Fr, 30.09. 14:00 15.9° C fast wolkenlos
Fr, 30.09. 8:00 4.8° C Nebel
Fr, 30.09. 2:00 5.8° C leicht bewölkt
Do, 29.09. 20:00 10.6° C bewölkt
Do, 29.09. 14:00 12.7° C bedeckt
Do, 29.09. 8:00 7.7° C bedeckt
Ortszeit Temperatur Wetter
Sa, 01.10. 7:30 7.6° C bedeckt
Sa, 01.10. 7:20 7.6° C bedeckt
Sa, 01.10. 7:10 7.4° C bedeckt
Sa, 01.10. 7:00 7.3° C bedeckt
Sa, 01.10. 6:50 7.3° C bedeckt
Sa, 01.10. 6:40 7.4° C bedeckt
Sa, 01.10. 6:30 7.3° C bedeckt
Sa, 01.10. 6:00 7.2° C bedeckt
Sa, 01.10. 5:30 7.1° C bewölkt
Sa, 01.10. 5:00 7.1° C wolkig
Sa, 01.10. 4:30 7.3° C wolkig
Ortszeit Relative Feuchte Sichtweite
Sa, 01.10. 2:00 86% 30 km
Fr, 30.09. 20:00 66% 45 km
Fr, 30.09. 14:00 55% 40 km
Fr, 30.09. 8:00 98% 7 km
Fr, 30.09. 2:00 96% 17 km
Do, 29.09. 20:00 77% 50 km
Do, 29.09. 14:00 67% 50 km
Do, 29.09. 8:00 93% 15 km
Ortszeit Relative Feuchte Sichtweite
Sa, 01.10. 7:30 88% 35 km
Sa, 01.10. 7:20 88% -
Sa, 01.10. 7:10 89% -
Sa, 01.10. 7:00 89% 28 km
Sa, 01.10. 6:50 89% -
Sa, 01.10. 6:40 89% -
Sa, 01.10. 6:30 90% 30 km
Sa, 01.10. 6:00 90% 25 km
Sa, 01.10. 5:30 91% 25 km
Sa, 01.10. 5:00 91% 24 km
Sa, 01.10. 4:30 91% 27 km
Ortszeit Niederschlagsmenge Niederschlagsart
Sa, 01.10. 2:00 0.0 l/m2 in 6 Std. -
Fr, 30.09. 20:00 0.1 l/m2 in 12 Std. Regen
Fr, 30.09. 14:00 0.0 l/m2 in 6 Std. -
Fr, 30.09. 8:00 0.0 l/m2 in 12 Std. -
Fr, 30.09. 2:00 0.0 l/m2 in 6 Std. -
Do, 29.09. 20:00 0.0 l/m2 in 12 Std. -
Do, 29.09. 14:00 0.0 l/m2 in 6 Std. -
Do, 29.09. 8:00 0.0 l/m2 in 12 Std. -
Ortszeit Niederschlagsmenge Niederschlagsart
Sa, 01.10. 7:30 0.0 l/m2 in 1 Std. -
Sa, 01.10. 7:20 keine Meldung -
Sa, 01.10. 7:10 keine Meldung -
Sa, 01.10. 7:00 0.0 l/m2 in 1 Std. -
Sa, 01.10. 6:50 keine Meldung -
Sa, 01.10. 6:40 keine Meldung -
Sa, 01.10. 6:30 0.0 l/m2 in 1 Std. -
Sa, 01.10. 6:00 0.0 l/m2 in 1 Std. -
Sa, 01.10. 5:30 0.0 l/m2 in 1 Std. -
Sa, 01.10. 5:00 0.0 l/m2 in 1 Std. -
Sa, 01.10. 4:30 0.0 l/m2 in 1 Std. -
Ortszeit Stärke Spitze Richtung
km/h Bft. km/h Grad Sektor
Sa, 01.10. 2:00 7 2 11 170° S
Fr, 30.09. 20:00 4 1 25 180° S
Fr, 30.09. 14:00 11 2 29 190° S
Fr, 30.09. 8:00 4 1 11 110° O
Fr, 30.09. 2:00 4 1 14 110° O
Do, 29.09. 20:00 7 2 18 130° SO
Do, 29.09. 14:00 7 2 22 180° S
Do, 29.09. 8:00 4 1 14 200° S
Ortszeit Stärke Spitze Richtung
km/h Bft. km/h Grad Sektor
Sa, 01.10. 7:30 7 2 15 170° S
Sa, 01.10. 7:20 7 2 - 170° S
Sa, 01.10. 7:10 7 2 - 170° S
Sa, 01.10. 7:00 7 2 13 160° S
Sa, 01.10. 6:50 7 2 - 160° S
Sa, 01.10. 6:40 7 2 - 170° S
Sa, 01.10. 6:30 7 2 13 170° S
Sa, 01.10. 6:00 9 2 15 160° S
Sa, 01.10. 5:30 9 2 15 170° S
Sa, 01.10. 5:00 7 2 13 170° S
Sa, 01.10. 4:30 7 2 14 180° S
Ortszeit Untergrenze Bedeckung Gattung
total tief tief mittel hoch
Sa, 01.10. 2:00 - 0/8 0/8 - - -
Fr, 30.09. 20:00 - 0/8 0/8 - - -
Fr, 30.09. 14:00 1170 m 1/8 1/8 - - -
Fr, 30.09. 8:00 - 0/8 0/8 - - -
Fr, 30.09. 2:00 5400 m 3/8 2/8 - - -
Do, 29.09. 20:00 6000 m 8/8 7/8 - - -
Do, 29.09. 14:00 720 m 8/8 8/8 - - -
Do, 29.09. 8:00 1500 m 8/8 8/8 - - -
Ortszeit Bedeckungsgrad in Achtel und Wolkenuntergrenze
Sa, 01.10. 7:30 8(5700m) 8(9000m)
Sa, 01.10. 7:20 8(5700m) 8(9000m)
Sa, 01.10. 7:10 8
Sa, 01.10. 7:00 8(6300m)
Sa, 01.10. 6:50 8(6300m)
Sa, 01.10. 6:40 8
Sa, 01.10. 6:30 8(6300m)
Sa, 01.10. 6:00 8(6600m)
Sa, 01.10. 5:30 5(6900m) 8(7800m) 8(9000m)
Sa, 01.10. 5:00 8(8100m) 8(10500m)
Sa, 01.10. 4:30 8(8400m)
Ortszeit Luftdruck NN (hPa) Tendenz (hPa in 3 Std.)
Sa, 01.10. 2:00 1011 - 0,6
Fr, 30.09. 20:00 1012 + 0,3
Fr, 30.09. 14:00 1011 - 0,4
Fr, 30.09. 8:00 1011 + 1,4
Fr, 30.09. 2:00 1009 + 1,2
Do, 29.09. 20:00 1006 + 1,7
Do, 29.09. 14:00 1004 + 0,9
Do, 29.09. 8:00 1002 + 0,9
Ortszeit Luftdruck NN (hPa) Tendenz (hPa in 3 Std.)
Sa, 01.10. 7:30 1009 - 1,1
Sa, 01.10. 7:20 1009 keine Meldung
Sa, 01.10. 7:10 1009 keine Meldung
Sa, 01.10. 7:00 1009 - 1,1
Sa, 01.10. 6:50 1009 keine Meldung
Sa, 01.10. 6:40 1009 keine Meldung
Sa, 01.10. 6:30 1009 - 1,2
Sa, 01.10. 6:00 1010 - 1,2
Sa, 01.10. 5:30 1010 - 1,1
Sa, 01.10. 5:00 1010 - 1,1
Sa, 01.10. 4:30 1010 - 1,2
Ortszeit Schneehöhe (cm)
Sa, 01.10. 2:00 0
Fr, 30.09. 20:00 0
Fr, 30.09. 14:00 0
Fr, 30.09. 8:00 0
Fr, 30.09. 2:00 0
Do, 29.09. 20:00 0
Do, 29.09. 14:00 0
Do, 29.09. 8:00 0
Ortszeit Schneehöhe (cm)
Sa, 01.10. 7:30 0
Sa, 01.10. 7:20 0
Sa, 01.10. 7:10 0
Sa, 01.10. 7:00 0
Sa, 01.10. 6:50 0
Sa, 01.10. 6:40 0
Sa, 01.10. 6:30 0
Sa, 01.10. 6:00 0
Sa, 01.10. 5:30 0
Sa, 01.10. 5:00 0
Sa, 01.10. 4:30 0
Link zu dieser Seite / Seite empfehlen

Das Wetter in ...